Time;durP1;ratioP1;P1;durP2;ratioP2;P2;SDS_P1;SDS_P2;PMS_P1;PMS_P2;Temp;Humidity;BMP_temperature;BMP_pressure;BME280_temperature;BME280_humidity;BME280_pressure;Samples;Min_cycle;Max_cycle;Signal;HPM_P1;HPM_P2
2023/07/19 00:00:43;;;;;;;;;;;;;;;;;;4986803;28;19921;-86
2023/07/19 00:03:09;;;;;;;;;;;;;;;;;;4984317;28;19952;-86
2023/07/19 00:05:36;;;;;;;;;;;;;;;;;;5002052;28;19968;-85
2023/07/19 00:08:05;;;;;;;;;;;;;;;;;;4986098;28;19925;-86
2023/07/19 00:10:31;;;;;;;;;;;;;;;;;;4982556;28;19922;-85
2023/07/19 00:12:57;;;;;;;;;;;;;;;;;;4984178;28;20384;-85
2023/07/19 00:15:22;;;;;;;;;;;;;;;;;;4998674;28;19928;-86
2023/07/19 00:17:48;;;;;;;;;;;;;;;;;;4987608;28;19932;-86
2023/07/19 00:20:15;;;;;;;;;;;;;;;;;;4986207;28;19980;-86
2023/07/19 00:22:41;;;;;;;;;;;;;;;;;;4985461;28;19947;-86
2023/07/19 00:25:06;;;;;;;;;;;;;;;;;;4986104;28;20086;-85
2023/07/19 00:27:32;;;;;;;;;;;;;;;;;;4984915;28;19925;-86
2023/07/19 00:29:58;;;;;;;;;;;;;;;;;;4987175;28;19928;-86
2023/07/19 00:32:24;;;;;;;;;;;;;;;;;;4987384;28;19921;-87
2023/07/19 00:34:50;;;;;;;;;;;;;;;;;;4985409;28;19921;-87
2023/07/19 00:37:16;;;;;;;;;;;;;;;;;;4985473;28;19987;-86
2023/07/19 00:39:42;;;;;;;;;;;;;;;;;;4987146;28;19928;-86
2023/07/19 00:42:08;;;;;;;;;;;;;;;;;;4986875;28;19922;-85
2023/07/19 00:44:34;;;;;;;;;;;;;;;;;;4985293;28;19961;-86
2023/07/19 00:47:02;;;;;;;;;;;;;;;;;;4985915;28;20268;-87
2023/07/19 00:52:01;;;;;;;;;;;;;;;;;;4999101;28;19922;-83
2023/07/19 00:54:27;;;;;;;;;;;;;;;;;;4981636;28;20005;-87
2023/07/19 00:56:53;;;;;;;;;;;;;;;;;;4998207;28;19976;-86
2023/07/19 00:59:19;;;;;;;;;;;;;;;;;;5002428;28;19917;-86
2023/07/19 01:01:45;;;;;;;;;;;;;;;;;;4985408;28;19922;-86
2023/07/19 01:04:12;;;;;;;;;;;;;;;;;;4984326;28;20398;-87
2023/07/19 01:06:38;;;;;;;;;;;;;;;;;;4984496;28;19921;-85
2023/07/19 01:09:04;;;;;;;;;;;;;;;;;;5002012;28;19921;-85
2023/07/19 01:11:31;;;;;;;;;;;;;;;;;;5001488;28;19921;-87
2023/07/19 01:13:57;;;;;;;;;;;;;;;;;;4986120;28;20023;-87
2023/07/19 01:16:23;;;;;;;;;;;;;;;;;;4985550;28;19984;-86
2023/07/19 01:18:49;;;;;;;;;;;;;;;;;;5000639;28;19944;-86
2023/07/19 01:21:15;;;;;;;;;;;;;;;;;;4985363;28;20435;-86
2023/07/19 01:23:40;;;;;;;;;;;;;;;;;;5002752;28;19929;-86
2023/07/19 01:26:06;;;;;;;;;;;;;;;;;;4986271;28;19922;-86
2023/07/19 01:28:48;;;;;;;;;;;;;;;;;;4985903;28;19968;-86
2023/07/19 01:31:15;;;;;;;;;;;;;;;;;;4986460;28;19929;-85
2023/07/19 01:33:41;;;;;;;;;;;;;;;;;;5004711;28;20008;-86
2023/07/19 01:36:07;;;;;;;;;;;;;;;;;;4989142;28;19976;-85
2023/07/19 01:38:34;;;;;;;;;;;;;;;;;;5004300;28;19928;-84
2023/07/19 01:41:01;;;;;;;;;;;;;;;;;;4988577;28;19921;-85
2023/07/19 01:43:27;;;;;;;;;;;;;;;;;;4988520;28;19906;-85
2023/07/19 01:45:53;;;;;;;;;;;;;;;;;;4987614;28;19944;-85
2023/07/19 01:48:19;;;;;;;;;;;;;;;;;;4989062;28;20303;-86
2023/07/19 01:50:44;;;;;;;;;;;;;;;;;;4987248;28;19921;-86
2023/07/19 01:53:10;;;;;;;;;;;;;;;;;;4988776;28;19928;-86
2023/07/19 01:55:36;;;;;;;;;;;;;;;;;;4989120;28;19921;-86
2023/07/19 01:58:02;;;;;;;;;;;;;;;;;;4989130;28;19929;-86
2023/07/19 02:00:28;;;;;;;;;;;;;;;;;;4988476;28;19969;-87
2023/07/19 02:02:55;;;;;;;;;;;;;;;;;;4989903;28;19925;-86
2023/07/19 02:05:21;;;;;;;;;;;;;;;;;;4987880;28;19928;-85
2023/07/19 02:07:47;;;;;;;;;;;;;;;;;;4988259;28;19922;-86
2023/07/19 02:10:13;;;;;;;;;;;;;;;;;;4987422;28;19928;-85
2023/07/19 02:12:39;;;;;;;;;;;;;;;;;;4986184;28;19929;-85
2023/07/19 02:15:05;;;;;;;;;;;;;;;;;;4988971;28;20040;-86
2023/07/19 02:17:31;;;;;;;;;;;;;;;;;;4988873;28;19932;-86
2023/07/19 02:19:56;;;;;;;;;;;;;;;;;;5004963;28;20013;-86
2023/07/19 02:22:23;;;;;;;;;;;;;;;;;;4989817;28;19928;-84
2023/07/19 02:24:49;;;;;;;;;;;;;;;;;;5002618;28;19932;-86
2023/07/19 02:27:15;;;;;;;;;;;;;;;;;;5004357;28;20353;-85
2023/07/19 02:29:41;;;;;;;;;;;;;;;;;;5003788;28;19936;-86
2023/07/19 02:32:07;;;;;;;;;;;;;;;;;;5003783;28;19921;-86
2023/07/19 02:34:33;;;;;;;;;;;;;;;;;;5003690;28;20008;-85
2023/07/19 02:37:00;;;;;;;;;;;;;;;;;;4987600;28;19936;-85
2023/07/19 02:39:30;;;;;;;;;;;;;;;;;;4987008;28;19925;-85
2023/07/19 02:42:12;;;;;;;;;;;;;;;;;;5001154;28;20474;-86
2023/07/19 02:44:38;;;;;;;;;;;;;;;;;;4985550;28;19991;-86
2023/07/19 02:47:03;;;;;;;;;;;;;;;;;;4983869;28;19925;-86
2023/07/19 02:49:29;;;;;;;;;;;;;;;;;;4999603;28;19929;-86
2023/07/19 02:51:55;;;;;;;;;;;;;;;;;;4999991;28;19937;-85
2023/07/19 02:54:21;;;;;;;;;;;;;;;;;;4999097;28;20004;-86
2023/07/19 02:56:47;;;;;;;;;;;;;;;;;;4999206;28;19976;-85
2023/07/19 02:59:13;;;;;;;;;;;;;;;;;;5002442;28;19927;-84
2023/07/19 03:01:41;;;;;;;;;;;;;;;;;;4986407;28;19926;-87
2023/07/19 03:04:07;;;;;;;;;;;;;;;;;;4987388;28;19988;-86
2023/07/19 03:06:33;;;;;;;;;;;;;;;;;;4986469;28;20372;-86
2023/07/19 03:08:59;;;;;;;;;;;;;;;;;;4987232;28;19926;-86
2023/07/19 03:11:25;;;;;;;;;;;;;;;;;;4986358;28;19929;-86
2023/07/19 03:13:51;;;;;;;;;;;;;;;;;;4985223;28;19961;-85
2023/07/19 03:16:17;;;;;;;;;;;;;;;;;;4986326;28;20594;-86
2023/07/19 03:18:50;;;;;;;;;;;;;;;;;;4986390;28;19968;-86
2023/07/19 03:21:16;;;;;;;;;;;;;;;;;;4987144;28;20015;-85
2023/07/19 03:23:42;;;;;;;;;;;;;;;;;;4986450;28;19964;-87
2023/07/19 03:26:09;;;;;;;;;;;;;;;;;;4986021;28;20338;-87
2023/07/19 03:28:35;;;;;;;;;;;;;;;;;;4985922;28;20379;-86
2023/07/19 03:31:01;;;;;;;;;;;;;;;;;;5001766;28;19929;-87
2023/07/19 03:33:27;;;;;;;;;;;;;;;;;;4985504;28;20376;-87
2023/07/19 03:35:53;;;;;;;;;;;;;;;;;;4985848;28;20335;-85
2023/07/19 03:38:19;;;;;;;;;;;;;;;;;;4985895;28;20184;-85
2023/07/19 03:40:45;;;;;;;;;;;;;;;;;;5001657;28;19935;-85
2023/07/19 03:43:11;;;;;;;;;;;;;;;;;;4984988;28;19943;-86
2023/07/19 03:45:37;;;;;;;;;;;;;;;;;;5001478;28;19933;-86
2023/07/19 03:48:03;;;;;;;;;;;;;;;;;;4986041;28;19975;-85
2023/07/19 03:50:29;;;;;;;;;;;;;;;;;;4985833;28;19975;-85
2023/07/19 03:52:55;;;;;;;;;;;;;;;;;;4985285;28;19921;-85
2023/07/19 03:55:21;;;;;;;;;;;;;;;;;;4984166;28;20290;-86
2023/07/19 03:57:47;;;;;;;;;;;;;;;;;;4985292;28;20415;-86
2023/07/19 04:00:13;;;;;;;;;;;;;;;;;;4985745;28;19925;-86
2023/07/19 04:02:39;;;;;;;;;;;;;;;;;;4984861;28;20438;-86
2023/07/19 04:05:04;;;;;;;;;;;;;;;;;;4984750;28;20687;-86
2023/07/19 04:07:30;;;;;;;;;;;;;;;;;;4985061;28;20055;-85
2023/07/19 04:09:57;;;;;;;;;;;;;;;;;;4984369;28;19988;-88
2023/07/19 04:12:22;;;;;;;;;;;;;;;;;;4984977;28;20000;-86
2023/07/19 04:14:48;;;;;;;;;;;;;;;;;;4984918;28;19961;-86
2023/07/19 04:17:14;;;;;;;;;;;;;;;;;;4985269;28;19925;-85
2023/07/19 04:19:40;;;;;;;;;;;;;;;;;;4985316;28;20426;-85
2023/07/19 04:24:44;;;;;;;;;;;;;;;;;;5000628;28;20350;-86
2023/07/19 04:27:10;;;;;;;;;;;;;;;;;;4984563;28;19961;-86
2023/07/19 04:29:36;;;;;;;;;;;;;;;;;;4984828;28;19928;-85
2023/07/19 04:35:06;;;;;;;;;;;;;;;;;;5025686;28;19994;-85
2023/07/19 04:37:32;;;;;;;;;;;;;;;;;;5000228;28;20429;-86
2023/07/19 04:39:58;;;;;;;;;;;;;;;;;;4999604;28;19947;-84
2023/07/19 04:42:24;;;;;;;;;;;;;;;;;;4999300;28;19985;-85
2023/07/19 04:44:50;;;;;;;;;;;;;;;;;;5001531;28;19925;-85
2023/07/19 04:47:16;;;;;;;;;;;;;;;;;;4999459;28;19922;-85
2023/07/19 04:49:42;;;;;;;;;;;;;;;;;;5000094;28;19922;-86
2023/07/19 04:52:08;;;;;;;;;;;;;;;;;;5000370;28;19933;-85
2023/07/19 04:54:34;;;;;;;;;;;;;;;;;;4999972;28;19967;-86
2023/07/19 04:57:00;;;;;;;;;;;;;;;;;;5000460;28;20295;-84
2023/07/19 04:59:26;;;;;;;;;;;;;;;;;;4999993;28;20287;-87
2023/07/19 05:01:52;;;;;;;;;;;;;;;;;;4984475;28;19922;-87
2023/07/19 05:04:18;;;;;;;;;;;;;;;;;;5000418;28;19964;-86
2023/07/19 05:06:44;;;;;;;;;;;;;;;;;;5001879;28;19929;-85
2023/07/19 05:09:10;;;;;;;;;;;;;;;;;;4987039;28;19929;-85
2023/07/19 05:11:36;;;;;;;;;;;;;;;;;;4987624;28;19978;-85
2023/07/19 05:14:02;;;;;;;;;;;;;;;;;;4987256;28;19921;-86
2023/07/19 05:16:28;;;;;;;;;;;;;;;;;;4987675;28;19932;-84
2023/07/19 05:18:54;;;;;;;;;;;;;;;;;;4987047;28;19925;-85
2023/07/19 05:21:20;;;;;;;;;;;;;;;;;;4986944;28;19921;-87
2023/07/19 05:23:45;;;;;;;;;;;;;;;;;;4986477;28;19929;-87
2023/07/19 05:26:13;;;;;;;;;;;;;;;;;;5003273;28;19928;-87
2023/07/19 05:28:39;;;;;;;;;;;;;;;;;;4986540;28;19926;-86
2023/07/19 05:31:05;;;;;;;;;;;;;;;;;;4986623;28;19921;-86
2023/07/19 05:33:31;;;;;;;;;;;;;;;;;;4984621;28;20281;-85
2023/07/19 05:35:57;;;;;;;;;;;;;;;;;;4967450;28;19921;-87
2023/07/19 05:38:23;;;;;;;;;;;;;;;;;;4967688;28;19922;-85
2023/07/19 05:40:48;;;;;;;;;;;;;;;;;;4967611;28;19925;-86
2023/07/19 05:43:14;;;;;;;;;;;;;;;;;;4968301;28;19975;-86
2023/07/19 05:45:40;;;;;;;;;;;;;;;;;;4969121;28;19929;-85
2023/07/19 05:48:06;;;;;;;;;;;;;;;;;;4968937;28;19921;-85
2023/07/19 05:50:32;;;;;;;;;;;;;;;;;;4968532;28;19922;-86
2023/07/19 05:52:58;;;;;;;;;;;;;;;;;;4968543;28;19989;-86
2023/07/19 05:55:24;;;;;;;;;;;;;;;;;;4968015;28;19964;-87
2023/07/19 05:57:50;;;;;;;;;;;;;;;;;;4968257;28;20417;-86
2023/07/19 06:00:16;;;;;;;;;;;;;;;;;;4984924;28;20372;-85
2023/07/19 06:02:42;;;;;;;;;;;;;;;;;;4985155;28;19929;-87
2023/07/19 06:05:08;;;;;;;;;;;;;;;;;;4968095;28;20048;-86
2023/07/19 06:07:35;;;;;;;;;;;;;;;;;;4967673;28;19922;-87
2023/07/19 06:10:01;;;;;;;;;;;;;;;;;;4968757;28;19928;-86
2023/07/19 06:12:27;;;;;;;;;;;;;;;;;;4969004;28;19975;-87
2023/07/19 06:14:53;;;;;;;;;;;;;;;;;;4968007;28;19926;-87
2023/07/19 06:17:19;;;;;;;;;;;;;;;;;;4968042;28;19969;-86
2023/07/19 06:19:45;;;;;;;;;;;;;;;;;;4968042;28;19922;-87
2023/07/19 06:22:11;;;;;;;;;;;;;;;;;;4968121;28;19972;-87
2023/07/19 06:24:37;;;;;;;;;;;;;;;;;;4967549;28;19929;-85
2023/07/19 06:27:03;;;;;;;;;;;;;;;;;;4967807;28;19922;-86
2023/07/19 06:29:29;;;;;;;;;;;;;;;;;;4967447;28;20375;-87
2023/07/19 06:31:55;;;;;;;;;;;;;;;;;;4990708;28;19926;-87
2023/07/19 06:34:21;;;;;;;;;;;;;;;;;;4999929;28;19928;-86
2023/07/19 06:36:47;;;;;;;;;;;;;;;;;;4999829;28;19990;-87
2023/07/19 06:39:13;;;;;;;;;;;;;;;;;;5000952;28;19921;-87
2023/07/19 06:41:39;;;;;;;;;;;;;;;;;;5000944;28;19953;-88
2023/07/19 06:44:18;;;;;;;;;;;;;;;;;;5005359;28;19921;-88
2023/07/19 06:46:44;;;;;;;;;;;;;;;;;;4976867;28;19993;-91
2023/07/19 06:49:10;;;;;;;;;;;;;;;;;;4970800;28;19922;-89
2023/07/19 06:51:36;;;;;;;;;;;;;;;;;;4967476;28;19972;-89
2023/07/19 06:54:05;;;;;;;;;;;;;;;;;;4971589;28;19929;-89
2023/07/19 06:56:31;;;;;;;;;;;;;;;;;;5002190;28;20311;-86
2023/07/19 06:59:00;;;;;;;;;;;;;;;;;;5019619;28;20402;-87
2023/07/19 07:01:26;;;;;;;;;;;;;;;;;;5002181;28;19921;-87
2023/07/19 07:03:52;;;;;;;;;;;;;;;;;;5004474;28;20017;-90
2023/07/19 07:06:18;;;;;;;;;;;;;;;;;;4988597;28;19992;-88
2023/07/19 07:08:44;;;;;;;;;;;;;;;;;;4988199;28;19995;-91
2023/07/19 07:11:10;;;;;;;;;;;;;;;;;;4989356;28;19988;-90
2023/07/19 07:13:36;;;;;;;;;;;;;;;;;;4990281;28;20391;-90
2023/07/19 07:16:02;;;;;;;;;;;;;;;;;;5005472;28;19925;-90
2023/07/19 07:18:28;;;;;;;;;;;;;;;;;;4989386;28;19964;-91
2023/07/19 07:20:55;;;;;;;;;;;;;;;;;;5004642;28;19929;-90
2023/07/19 07:23:21;;;;;;;;;;;;;;;;;;4989357;28;19921;-90
2023/07/19 07:25:48;;;;;;;;;;;;;;;;;;4984112;28;19922;-90
2023/07/19 07:28:14;;;;;;;;;;;;;;;;;;5004271;28;19985;-94
2023/07/19 07:30:40;;;;;;;;;;;;;;;;;;4992110;28;19926;-89
2023/07/19 07:33:06;;;;;;;;;;;;;;;;;;4990483;28;19965;-89
2023/07/19 07:35:32;;;;;;;;;;;;;;;;;;4987709;28;20017;-90
2023/07/19 07:37:58;;;;;;;;;;;;;;;;;;5004625;28;19932;-90
2023/07/19 07:40:24;;;;;;;;;;;;;;;;;;4988550;28;19921;-88
2023/07/19 07:42:50;;;;;;;;;;;;;;;;;;4986181;28;19956;-87
2023/07/19 07:45:21;;;;;;;;;;;;;;;;;;4985365;28;19929;-87
2023/07/19 07:47:47;;;;;;;;;;;;;;;;;;4986692;28;19933;-87
2023/07/19 07:50:13;;;;;;;;;;;;;;;;;;4990174;28;20326;-87
2023/07/19 07:52:42;;;;;;;;;;;;;;;;;;5002882;28;19928;-88
2023/07/19 07:55:08;;;;;;;;;;;;;;;;;;4986785;28;19921;-89
2023/07/19 07:57:36;;;;;;;;;;;;;;;;;;4987494;28;19988;-86
2023/07/19 08:00:03;;;;;;;;;;;;;;;;;;5003061;28;19928;-88
2023/07/19 08:02:30;;;;;;;;;;;;;;;;;;5004091;28;20357;-90
2023/07/19 08:04:56;;;;;;;;;;;;;;;;;;5003690;28;19961;-87
2023/07/19 08:07:25;;;;;;;;;;;;;;;;;;4986399;28;19921;-89
2023/07/19 08:09:52;;;;;;;;;;;;;;;;;;4985184;28;19922;-87
2023/07/19 08:12:18;;;;;;;;;;;;;;;;;;4986113;28;19922;-89
2023/07/19 08:14:44;;;;;;;;;;;;;;;;;;4985461;28;20389;-88
2023/07/19 08:17:10;;;;;;;;;;;;;;;;;;4987293;28;19976;-88
2023/07/19 08:19:36;;;;;;;;;;;;;;;;;;4985664;28;19922;-87
2023/07/19 08:22:04;;;;;;;;;;;;;;;;;;4985465;28;19922;-88
2023/07/19 08:24:30;;;;;;;;;;;;;;;;;;4985563;28;19957;-89
2023/07/19 08:26:59;;;;;;;;;;;;;;;;;;4985527;28;19921;-88
2023/07/19 08:29:25;;;;;;;;;;;;;;;;;;5001465;28;19980;-88
2023/07/19 08:31:51;;;;;;;;;;;;;;;;;;5001584;28;19921;-87
2023/07/19 08:34:17;;;;;;;;;;;;;;;;;;5000718;28;19936;-86
2023/07/19 08:36:42;;;;;;;;;;;;;;;;;;4992601;28;19932;-88
2023/07/19 08:39:08;;;;;;;;;;;;;;;;;;4981498;28;20403;-86
2023/07/19 08:41:34;;;;;;;;;;;;;;;;;;5001298;28;20016;-87
2023/07/19 08:44:08;;;;;;;;;;;;;;;;;;4991235;28;19930;-88
2023/07/19 08:46:34;;;;;;;;;;;;;;;;;;4989625;28;19929;-89
2023/07/19 08:48:59;;;;;;;;;;;;;;;;;;4990094;28;19925;-88
2023/07/19 08:51:26;;;;;;;;;;;;;;;;;;5001464;28;19953;-83
2023/07/19 08:53:51;;;;;;;;;;;;;;;;;;4987791;28;20032;-85
2023/07/19 08:56:17;;;;;;;;;;;;;;;;;;4987432;28;19969;-87
2023/07/19 08:58:44;;;;;;;;;;;;;;;;;;4985980;28;19922;-87
2023/07/19 09:01:14;;;;;;;;;;;;;;;;;;4988426;28;19932;-86
2023/07/19 09:03:39;;;;;;;;;;;;;;;;;;5004151;28;19933;-89
2023/07/19 09:06:06;;;;;;;;;;;;;;;;;;4986881;28;19906;-88
2023/07/19 09:08:32;;;;;;;;;;;;;;;;;;5004369;28;19929;-89
2023/07/19 09:10:58;;;;;;;;;;;;;;;;;;4988703;28;19922;-90
2023/07/19 09:13:24;;;;;;;;;;;;;;;;;;5006624;28;19982;-85
2023/07/19 09:15:50;;;;;;;;;;;;;;;;;;4989280;28;19930;-85
2023/07/19 09:18:17;;;;;;;;;;;;;;;;;;5004852;28;19921;-86
2023/07/19 09:20:43;;;;;;;;;;;;;;;;;;4993504;28;19936;-86
2023/07/19 09:23:09;;;;;;;;;;;;;;;;;;5005709;28;19921;-88
2023/07/19 09:25:35;;;;;;;;;;;;;;;;;;4989585;28;20443;-89
2023/07/19 09:28:00;;;;;;;;;;;;;;;;;;4988870;28;19945;-88
2023/07/19 09:30:45;;;;;;;;;;;;;;;;;;4984690;28;19921;-91
2023/07/19 09:33:11;;;;;;;;;;;;;;;;;;4993788;28;19985;-89
2023/07/19 09:35:38;;;;;;;;;;;;;;;;;;4996897;28;19929;-89
2023/07/19 09:38:04;;;;;;;;;;;;;;;;;;5000271;28;19925;-85
2023/07/19 09:40:31;;;;;;;;;;;;;;;;;;5003802;28;19933;-90
2023/07/19 09:42:57;;;;;;;;;;;;;;;;;;5007583;28;20407;-87
2023/07/19 09:45:25;;;;;;;;;;;;;;;;;;5006131;28;19929;-89
2023/07/19 09:47:51;;;;;;;;;;;;;;;;;;4989424;28;19948;-88
2023/07/19 09:50:17;;;;;;;;;;;;;;;;;;4987799;28;19921;-91
2023/07/19 09:52:43;;;;;;;;;;;;;;;;;;5015767;28;19921;-86
2023/07/19 09:55:09;;;;;;;;;;;;;;;;;;4988524;28;19929;-87
2023/07/19 09:57:35;;;;;;;;;;;;;;;;;;4988458;28;19996;-87
2023/07/19 10:00:03;;;;;;;;;;;;;;;;;;4988760;28;19972;-87
2023/07/19 10:02:29;;;;;;;;;;;;;;;;;;4987560;28;19929;-89
2023/07/19 10:04:55;;;;;;;;;;;;;;;;;;4988083;28;20391;-88
2023/07/19 10:07:23;;;;;;;;;;;;;;;;;;4984728;28;19953;-86
2023/07/19 10:09:50;;;;;;;;;;;;;;;;;;4983023;28;19988;-89
2023/07/19 10:12:16;;;;;;;;;;;;;;;;;;5003918;28;19960;-90
2023/07/19 10:14:42;;;;;;;;;;;;;;;;;;5025143;28;19929;-89
2023/07/19 10:17:08;;;;;;;;;;;;;;;;;;4991479;28;20486;-91
2023/07/19 10:19:35;;;;;;;;;;;;;;;;;;4991125;28;19944;-89
2023/07/19 10:22:02;;;;;;;;;;;;;;;;;;4992436;28;19928;-91
2023/07/19 10:24:28;;;;;;;;;;;;;;;;;;4990996;28;20008;-90
2023/07/19 10:26:56;;;;;;;;;;;;;;;;;;4990777;28;19921;-90
2023/07/19 10:29:22;;;;;;;;;;;;;;;;;;5006736;28;19922;-89
2023/07/19 10:31:48;;;;;;;;;;;;;;;;;;4989193;28;19928;-88
2023/07/19 10:34:13;;;;;;;;;;;;;;;;;;4988146;28;19988;-88
2023/07/19 10:36:40;;;;;;;;;;;;;;;;;;4988470;28;20347;-88
2023/07/19 10:39:05;;;;;;;;;;;;;;;;;;4985251;28;19922;-91
2023/07/19 10:41:31;;;;;;;;;;;;;;;;;;4991501;28;19922;-88
2023/07/19 10:46:45;;;;;;;;;;;;;;;;;;4984949;28;19925;-87
2023/07/19 10:49:11;;;;;;;;;;;;;;;;;;4986398;28;20433;-91
2023/07/19 10:51:37;;;;;;;;;;;;;;;;;;4981746;28;19989;-90
2023/07/19 10:54:03;;;;;;;;;;;;;;;;;;4991988;28;19937;-91
2023/07/19 10:56:29;;;;;;;;;;;;;;;;;;4993295;28;19926;-92
2023/07/19 10:58:56;;;;;;;;;;;;;;;;;;4992494;28;19925;-92
2023/07/19 11:01:22;;;;;;;;;;;;;;;;;;4992756;28;19960;-94
2023/07/19 11:03:48;;;;;;;;;;;;;;;;;;4991227;28;19925;-89
2023/07/19 11:06:14;;;;;;;;;;;;;;;;;;4991684;28;19951;-92
2023/07/19 11:08:40;;;;;;;;;;;;;;;;;;4993411;28;20726;-92
2023/07/19 11:13:37;;;;;;;;;;;;;;;;;;5005231;28;19973;-92
2023/07/19 11:16:09;;;;;;;;;;;;;;;;;;5002607;28;19922;-92
2023/07/19 11:18:35;;;;;;;;;;;;;;;;;;4986839;28;19922;-93
2023/07/19 11:21:01;;;;;;;;;;;;;;;;;;4983335;28;19921;-89
2023/07/19 11:23:28;;;;;;;;;;;;;;;;;;5006335;28;20008;-93
2023/07/19 11:25:54;;;;;;;;;;;;;;;;;;4989624;28;20356;-93
2023/07/19 11:28:20;;;;;;;;;;;;;;;;;;4987874;28;20411;-89
2023/07/19 11:30:46;;;;;;;;;;;;;;;;;;4988372;28;20394;-93
2023/07/19 11:33:12;;;;;;;;;;;;;;;;;;4987656;28;19922;-92
2023/07/19 11:35:38;;;;;;;;;;;;;;;;;;4990134;28;19922;-94
2023/07/19 11:38:04;;;;;;;;;;;;;;;;;;5020600;28;19974;-89
2023/07/19 11:40:30;;;;;;;;;;;;;;;;;;5017394;28;19925;-91
2023/07/19 11:42:56;;;;;;;;;;;;;;;;;;5010404;28;19949;-93
2023/07/19 11:45:23;;;;;;;;;;;;;;;;;;4993818;28;19925;-94
2023/07/19 11:47:49;;;;;;;;;;;;;;;;;;4989955;28;19921;-94
2023/07/19 11:50:16;;;;;;;;;;;;;;;;;;4991022;28;19922;-92
2023/07/19 11:52:43;;;;;;;;;;;;;;;;;;4990737;28;19929;-93
2023/07/19 11:55:11;;;;;;;;;;;;;;;;;;4989243;28;19968;-94
2023/07/19 11:57:37;;;;;;;;;;;;;;;;;;5007184;28;19973;-92
2023/07/19 12:00:03;;;;;;;;;;;;;;;;;;4988510;28;19922;-93
2023/07/19 12:05:25;;;;;;;;;;;;;;;;;;5016914;28;19921;-92
2023/07/19 12:07:52;;;;;;;;;;;;;;;;;;4992096;28;19933;-91
2023/07/19 12:10:17;;;;;;;;;;;;;;;;;;5005968;28;19926;-92
2023/07/19 12:12:44;;;;;;;;;;;;;;;;;;4992884;28;19921;-95
2023/07/19 12:15:11;;;;;;;;;;;;;;;;;;4970597;28;19925;-93
2023/07/19 12:17:37;;;;;;;;;;;;;;;;;;4971338;28;19972;-91
2023/07/19 12:20:05;;;;;;;;;;;;;;;;;;4971712;28;22375;-93
2023/07/19 12:22:31;;;;;;;;;;;;;;;;;;4971306;28;20331;-93
2023/07/19 12:25:00;;;;;;;;;;;;;;;;;;4971096;28;19932;-92
2023/07/19 12:27:26;;;;;;;;;;;;;;;;;;4972174;28;19981;-91
2023/07/19 12:29:52;;;;;;;;;;;;;;;;;;4988358;28;19921;-93
2023/07/19 12:35:11;;;;;;;;;;;;;;;;;;4985052;28;20020;-92
2023/07/19 12:37:37;;;;;;;;;;;;;;;;;;4985321;28;20021;-92
2023/07/19 12:40:05;;;;;;;;;;;;;;;;;;4969210;28;20368;-91
2023/07/19 12:42:31;;;;;;;;;;;;;;;;;;4968920;28;19976;-90
2023/07/19 12:48:02;;;;;;;;;;;;;;;;;;5013398;28;19931;-91
2023/07/19 12:50:33;;;;;;;;;;;;;;;;;;5004831;28;19921;-90
2023/07/19 12:52:59;;;;;;;;;;;;;;;;;;4988642;28;19948;-90
2023/07/19 12:55:25;;;;;;;;;;;;;;;;;;4989235;28;19977;-90
2023/07/19 12:57:51;;;;;;;;;;;;;;;;;;4990069;28;19917;-89
2023/07/19 13:00:17;;;;;;;;;;;;;;;;;;5005346;28;19968;-92
2023/07/19 13:02:44;;;;;;;;;;;;;;;;;;5004919;28;19922;-91
2023/07/19 13:05:10;;;;;;;;;;;;;;;;;;4987775;28;19965;-91
2023/07/19 13:07:36;;;;;;;;;;;;;;;;;;4993815;28;19921;-89
2023/07/19 13:10:02;;;;;;;;;;;;;;;;;;5003413;28;19921;-93
2023/07/19 13:12:28;;;;;;;;;;;;;;;;;;5007061;28;19928;-93
2023/07/19 13:14:54;;;;;;;;;;;;;;;;;;5007816;28;19921;-93
2023/07/19 13:17:21;;;;;;;;;;;;;;;;;;5007902;28;20049;-94
2023/07/19 13:19:47;;;;;;;;;;;;;;;;;;5009240;28;20026;-93
2023/07/19 13:22:13;;;;;;;;;;;;;;;;;;5008207;28;19921;-92
2023/07/19 13:24:38;;;;;;;;;;;;;;;;;;5007819;28;19969;-93
2023/07/19 13:27:07;;;;;;;;;;;;;;;;;;5007959;28;19922;-93
2023/07/19 13:29:33;;;;;;;;;;;;;;;;;;5011963;28;19925;-93
2023/07/19 13:31:59;;;;;;;;;;;;;;;;;;5010467;28;19984;-94
2023/07/19 13:34:27;;;;;;;;;;;;;;;;;;5011040;28;19980;-92
2023/07/19 13:36:53;;;;;;;;;;;;;;;;;;5015339;28;19932;-93
2023/07/19 13:39:19;;;;;;;;;;;;;;;;;;5013768;28;19921;-90
2023/07/19 13:41:45;;;;;;;;;;;;;;;;;;5013901;28;19981;-94
2023/07/19 13:44:14;;;;;;;;;;;;;;;;;;5013026;28;19929;-92
2023/07/19 13:46:40;;;;;;;;;;;;;;;;;;4995471;28;19925;-93
2023/07/19 13:49:06;;;;;;;;;;;;;;;;;;4995089;28;19952;-94
2023/07/19 13:51:32;;;;;;;;;;;;;;;;;;4996178;28;19936;-91
2023/07/19 13:53:58;;;;;;;;;;;;;;;;;;4997368;28;19917;-93
2023/07/19 13:56:25;;;;;;;;;;;;;;;;;;5012942;28;19925;-92
2023/07/19 13:58:51;;;;;;;;;;;;;;;;;;4997391;28;19988;-92
2023/07/19 14:01:17;;;;;;;;;;;;;;;;;;4996999;28;19929;-92
2023/07/19 14:03:43;;;;;;;;;;;;;;;;;;5016462;28;19933;-91
2023/07/19 14:06:09;;;;;;;;;;;;;;;;;;4995709;28;19936;-92
2023/07/19 14:08:35;;;;;;;;;;;;;;;;;;4996283;28;19925;-94
2023/07/19 14:11:01;;;;;;;;;;;;;;;;;;4997795;28;19925;-92
2023/07/19 14:13:27;;;;;;;;;;;;;;;;;;4995101;28;19965;-95
2023/07/19 14:15:53;;;;;;;;;;;;;;;;;;4995867;28;19921;-93
2023/07/19 14:18:22;;;;;;;;;;;;;;;;;;5030650;28;19972;-93
2023/07/19 14:20:49;;;;;;;;;;;;;;;;;;4995792;28;19921;-93
2023/07/19 14:23:15;;;;;;;;;;;;;;;;;;4996719;28;19989;-92
2023/07/19 14:25:41;;;;;;;;;;;;;;;;;;4995797;28;19988;-92
2023/07/19 14:28:07;;;;;;;;;;;;;;;;;;4996376;28;19928;-92
2023/07/19 14:30:33;;;;;;;;;;;;;;;;;;4995719;28;19998;-94
2023/07/19 14:32:59;;;;;;;;;;;;;;;;;;4999712;28;19925;-93
2023/07/19 14:35:25;;;;;;;;;;;;;;;;;;4996977;28;19989;-93
2023/07/19 14:37:51;;;;;;;;;;;;;;;;;;4998159;28;19929;-91
2023/07/19 14:40:20;;;;;;;;;;;;;;;;;;5013366;28;19925;-95
2023/07/19 14:42:51;;;;;;;;;;;;;;;;;;5013558;28;20080;-92
2023/07/19 14:45:16;;;;;;;;;;;;;;;;;;4998210;28;20136;-94
2023/07/19 14:47:42;;;;;;;;;;;;;;;;;;4996955;28;19929;-93
2023/07/19 14:50:08;;;;;;;;;;;;;;;;;;5013306;28;19925;-91
2023/07/19 14:52:34;;;;;;;;;;;;;;;;;;5013064;28;19922;-94
2023/07/19 14:55:00;;;;;;;;;;;;;;;;;;4994679;28;19925;-95
2023/07/19 14:57:26;;;;;;;;;;;;;;;;;;4996655;28;19930;-93
2023/07/19 14:59:53;;;;;;;;;;;;;;;;;;5012764;28;19936;-94
2023/07/19 15:02:19;;;;;;;;;;;;;;;;;;5012613;28;19913;-94
2023/07/19 15:04:45;;;;;;;;;;;;;;;;;;4994812;28;19922;-91
2023/07/19 15:07:11;;;;;;;;;;;;;;;;;;4993375;28;20291;-91
2023/07/19 15:09:36;;;;;;;;;;;;;;;;;;5011144;28;19980;-91
2023/07/19 15:12:07;;;;;;;;;;;;;;;;;;5000016;28;19925;-91
2023/07/19 15:17:38;;;;;;;;;;;;;;;;;;5027840;28;19932;-95
2023/07/19 15:20:04;;;;;;;;;;;;;;;;;;4994048;28;19971;-94
2023/07/19 15:22:30;;;;;;;;;;;;;;;;;;4993687;28;19933;-90
2023/07/19 15:24:56;;;;;;;;;;;;;;;;;;5008182;28;19922;-92
2023/07/19 15:29:51;;;;;;;;;;;;;;;;;;5008759;28;19929;-93
2023/07/19 15:32:17;;;;;;;;;;;;;;;;;;5007848;28;19943;-91
2023/07/19 15:34:43;;;;;;;;;;;;;;;;;;5007726;28;19983;-93
2023/07/19 15:37:08;;;;;;;;;;;;;;;;;;5007680;28;19926;-92
2023/07/19 15:39:34;;;;;;;;;;;;;;;;;;5008540;28;19988;-90
2023/07/19 15:42:00;;;;;;;;;;;;;;;;;;5008458;28;19925;-90
2023/07/19 15:44:28;;;;;;;;;;;;;;;;;;5010828;28;20392;-93
2023/07/19 15:46:54;;;;;;;;;;;;;;;;;;5009503;28;19926;-91
2023/07/19 15:49:24;;;;;;;;;;;;;;;;;;4994796;28;19928;-90
2023/07/19 15:52:01;;;;;;;;;;;;;;;;;;4995342;28;19922;-94
2023/07/19 15:54:28;;;;;;;;;;;;;;;;;;4994116;28;19928;-94
2023/07/19 15:56:54;;;;;;;;;;;;;;;;;;4992971;28;19916;-92
2023/07/19 15:59:20;;;;;;;;;;;;;;;;;;5011735;28;20056;-93
2023/07/19 16:01:49;;;;;;;;;;;;;;;;;;5009591;28;19921;-91
2023/07/19 16:04:15;;;;;;;;;;;;;;;;;;4991465;28;19928;-92
2023/07/19 16:06:41;;;;;;;;;;;;;;;;;;5009122;28;20326;-92
2023/07/19 16:09:07;;;;;;;;;;;;;;;;;;5008713;28;19925;-93
2023/07/19 16:11:38;;;;;;;;;;;;;;;;;;5011188;28;20291;-93
2023/07/19 16:14:07;;;;;;;;;;;;;;;;;;5012731;28;19921;-92
2023/07/19 16:16:35;;;;;;;;;;;;;;;;;;4994154;28;19933;-93
2023/07/19 16:19:04;;;;;;;;;;;;;;;;;;4996609;28;20411;-90
2023/07/19 16:21:31;;;;;;;;;;;;;;;;;;4997416;28;19932;-93
2023/07/19 16:23:57;;;;;;;;;;;;;;;;;;4994429;28;19928;-94
2023/07/19 16:26:24;;;;;;;;;;;;;;;;;;4993005;28;19960;-90
2023/07/19 16:28:50;;;;;;;;;;;;;;;;;;4993448;28;19922;-92
2023/07/19 16:31:16;;;;;;;;;;;;;;;;;;4997354;28;19956;-91
2023/07/19 16:33:42;;;;;;;;;;;;;;;;;;4992946;28;20010;-92
2023/07/19 16:36:08;;;;;;;;;;;;;;;;;;4992815;28;19925;-93
2023/07/19 16:38:34;;;;;;;;;;;;;;;;;;4994008;28;19925;-94
2023/07/19 16:41:00;;;;;;;;;;;;;;;;;;4992134;28;19928;-91
2023/07/19 16:43:26;;;;;;;;;;;;;;;;;;4987345;28;19968;-93
2023/07/19 16:45:55;;;;;;;;;;;;;;;;;;4988063;28;19994;-91
2023/07/19 16:48:21;;;;;;;;;;;;;;;;;;4987576;28;19926;-94
2023/07/19 16:50:47;;;;;;;;;;;;;;;;;;4989753;28;19961;-90
2023/07/19 16:53:13;;;;;;;;;;;;;;;;;;4988116;28;19925;-91
2023/07/19 16:55:43;;;;;;;;;;;;;;;;;;4991920;28;19976;-93
2023/07/19 16:58:12;;;;;;;;;;;;;;;;;;5007167;28;19993;-93
2023/07/19 17:00:38;;;;;;;;;;;;;;;;;;4992191;28;19950;-94
2023/07/19 17:03:04;;;;;;;;;;;;;;;;;;5002446;28;19929;-92
2023/07/19 17:05:31;;;;;;;;;;;;;;;;;;4974884;28;19926;-93
2023/07/19 17:08:01;;;;;;;;;;;;;;;;;;4975630;28;19957;-95